Time;durP1;ratioP1;P1;durP2;ratioP2;P2;SDS_P1;SDS_P2;PMS_P1;PMS_P2;Temp;Humidity;BMP_temperature;BMP_pressure;BME280_temperature;BME280_humidity;BME280_pressure;Samples;Min_cycle;Max_cycle;Signal;HPM_P1;HPM_P2
2022/07/13 00:00:12;;;;;;;12.13;7.88;;;;;;;21.53;100.00;102071.19;2614861;36;20057;-57
2022/07/13 00:02:41;;;;;;;11.35;7.55;;;;;;;21.47;100.00;102054.59;2614928;36;20880;-58
2022/07/13 00:05:10;;;;;;;9.73;7.75;;;;;;;21.49;100.00;102049.78;2615511;36;20022;-57
2022/07/13 00:07:39;;;;;;;10.32;7.43;;;;;;;21.39;100.00;102040.94;2613594;31;20057;-57
2022/07/13 00:10:08;;;;;;;10.73;7.60;;;;;;;21.36;100.00;102053.09;2614847;36;20122;-57
2022/07/13 00:12:39;;;;;;;10.63;7.45;;;;;;;21.45;100.00;102051.16;2615389;36;20034;-60
2022/07/13 00:15:09;;;;;;;14.80;7.97;;;;;;;21.43;100.00;102042.28;2614986;36;20044;-58
2022/07/13 00:17:37;;;;;;;11.27;7.47;;;;;;;21.44;100.00;102038.53;2615351;36;20042;-58
2022/07/13 00:20:07;;;;;;;9.00;6.88;;;;;;;21.33;100.00;102035.16;2614896;36;20821;-58
2022/07/13 00:22:35;;;;;;;12.77;7.97;;;;;;;21.42;100.00;102038.69;2615261;36;20452;-58
2022/07/13 00:25:03;;;;;;;11.98;8.23;;;;;;;21.33;100.00;102039.75;2615354;36;20586;-57
2022/07/13 00:27:32;;;;;;;11.55;7.57;;;;;;;21.36;100.00;102031.19;2615572;31;20034;-61
2022/07/13 00:30:02;;;;;;;9.38;7.47;;;;;;;21.35;100.00;102024.84;2615347;31;20042;-57
2022/07/13 00:32:31;;;;;;;9.68;7.22;;;;;;;21.29;100.00;102025.59;2615161;36;20037;-61
2022/07/13 00:34:59;;;;;;;9.32;6.78;;;;;;;21.31;100.00;102019.94;2615388;36;20069;-56
2022/07/13 00:37:27;;;;;;;10.07;6.75;;;;;;;21.30;100.00;102015.47;2614974;31;20062;-56
2022/07/13 00:39:56;;;;;;;9.38;7.10;;;;;;;21.27;100.00;102000.25;2615275;36;20551;-57
2022/07/13 00:42:24;;;;;;;9.25;6.90;;;;;;;21.30;100.00;102010.88;2613714;36;20567;-57
2022/07/13 00:44:52;;;;;;;9.82;6.45;;;;;;;21.29;100.00;102009.16;2615160;36;20070;-56
2022/07/13 00:47:23;;;;;;;8.30;6.00;;;;;;;21.22;100.00;102001.84;2615118;36;20455;-55
2022/07/13 00:49:52;;;;;;;10.32;6.20;;;;;;;21.16;100.00;101998.78;2615390;36;20030;-51
2022/07/13 00:52:20;;;;;;;9.05;6.75;;;;;;;21.18;100.00;101998.59;2614587;36;20023;-57
2022/07/13 00:54:49;;;;;;;9.90;6.47;;;;;;;21.26;100.00;101993.09;2615662;36;20424;-57
2022/07/13 00:57:17;;;;;;;10.00;6.18;;;;;;;21.26;100.00;101993.09;2615268;36;20030;-57
2022/07/13 00:59:46;;;;;;;7.97;5.13;;;;;;;21.30;100.00;101983.47;2615435;31;20034;-57
2022/07/13 01:02:14;;;;;;;7.38;5.93;;;;;;;21.34;100.00;101983.97;2614296;31;20038;-63
2022/07/13 01:04:45;;;;;;;8.60;5.22;;;;;;;21.36;100.00;101981.88;2611572;36;20046;-58
2022/07/13 01:07:13;;;;;;;7.28;4.90;;;;;;;21.40;100.00;101982.41;2615536;36;20053;-57
2022/07/13 01:09:42;;;;;;;6.57;4.93;;;;;;;21.43;100.00;101987.50;2615676;31;20549;-58
2022/07/13 01:12:10;;;;;;;8.15;5.18;;;;;;;21.39;100.00;101987.00;2615361;36;20026;-53
2022/07/13 01:14:39;;;;;;;6.20;4.80;;;;;;;21.41;100.00;101984.09;2615441;36;20540;-59
2022/07/13 01:17:08;;;;;;;6.05;4.78;;;;;;;21.35;100.00;101975.56;2615798;36;20045;-57
2022/07/13 01:19:37;;;;;;;5.50;4.50;;;;;;;21.30;100.00;101953.38;2615748;36;20038;-59
2022/07/13 01:22:09;;;;;;;;;;;;;;;21.32;100.00;101945.81;2615386;31;20070;-57
2022/07/13 01:24:42;;;;;;;7.78;5.22;;;;;;;21.46;100.00;101967.97;2616171;36;19989;-60
2022/07/13 01:27:12;;;;;;;8.02;4.75;;;;;;;21.57;100.00;101961.25;2616081;31;20567;-57
2022/07/13 01:29:41;;;;;;;7.10;4.47;;;;;;;21.54;100.00;101962.47;2615791;36;20054;-58
2022/07/13 01:32:09;;;;;;;;;;;;;;;21.52;100.00;101964.53;2615618;36;20583;-58
2022/07/13 01:34:37;;;;;;;9.57;4.37;;;;;;;21.49;100.00;101953.91;2615480;36;19958;-58
2022/07/13 01:37:06;;;;;;;5.78;4.13;;;;;;;21.50;100.00;101951.03;2615578;36;20035;-57
2022/07/13 01:39:34;;;;;;;6.20;4.32;;;;;;;21.54;100.00;101943.31;2615615;36;20042;-57
2022/07/13 01:42:05;;;;;;;4.15;3.63;;;;;;;21.56;100.00;101945.88;2615583;36;20038;-56
2022/07/13 01:44:33;;;;;;;7.55;4.47;;;;;;;21.53;100.00;101936.13;2615998;36;20030;-59
2022/07/13 01:47:09;;;;;;;7.15;4.38;;;;;;;21.53;100.00;101944.31;2615549;31;20078;-57
2022/07/13 01:49:37;;;;;;;5.38;3.83;;;;;;;21.68;100.00;101947.97;2615251;36;20031;-57
2022/07/13 01:52:06;;;;;;;5.18;3.92;;;;;;;21.69;100.00;101937.88;2615230;36;20039;-50
2022/07/13 01:54:34;;;;;;;6.15;4.30;;;;;;;21.62;100.00;101940.50;2614908;36;20561;-59
2022/07/13 01:57:05;;;;;;;4.93;3.92;;;;;;;21.66;100.00;101944.56;2615339;36;20548;-57
2022/07/13 01:59:34;;;;;;;5.05;4.10;;;;;;;21.69;100.00;101948.84;2615198;36;20042;-57
2022/07/13 02:02:02;;;;;;;6.07;4.00;;;;;;;21.74;100.00;101948.28;2615383;36;20067;-53
2022/07/13 02:04:30;;;;;;;5.50;3.88;;;;;;;21.74;100.00;101948.28;2614652;36;20069;-55
2022/07/13 02:06:58;;;;;;;5.05;3.70;;;;;;;21.84;100.00;101935.19;2615189;31;20037;-61
2022/07/13 02:09:27;;;;;;;5.43;3.78;;;;;;;21.77;100.00;101936.94;2614850;36;20041;-55
2022/07/13 02:11:55;;;;;;;5.60;4.10;;;;;;;21.76;100.00;101921.53;2615561;36;20031;-55
2022/07/13 02:14:26;;;;;;;6.35;4.15;;;;;;;21.77;100.00;101923.25;2615302;31;20172;-57
2022/07/13 02:16:54;;;;;;;5.20;3.65;;;;;;;21.79;100.00;101907.47;2615882;36;20034;-58
2022/07/13 02:19:23;;;;;;;5.15;3.80;;;;;;;21.81;100.00;101902.66;2615919;36;20435;-58
2022/07/13 02:21:51;;;;;;;5.50;4.05;;;;;;;21.88;100.00;101907.22;2615104;36;20077;-58
2022/07/13 02:24:20;;;;;;;6.88;4.68;;;;;;;21.96;100.00;101902.69;2615148;36;20107;-60
2022/07/13 02:26:49;;;;;;;9.88;4.93;;;;;;;22.01;100.00;101897.50;2615992;36;20042;-61
2022/07/13 02:29:17;;;;;;;;;;;;;;;22.03;100.00;101906.41;2614999;36;20536;-59
2022/07/13 02:31:47;;;;;;;5.07;3.90;;;;;;;22.09;100.00;101910.28;2615399;36;19968;-58
2022/07/13 02:34:17;;;;;;;6.40;4.15;;;;;;;22.13;100.00;101903.38;2615466;36;20069;-58
2022/07/13 02:36:45;;;;;;;6.50;4.57;;;;;;;22.12;100.00;101901.69;2616080;36;20436;-57
2022/07/13 02:39:13;;;;;;;6.45;3.85;;;;;;;22.22;100.00;101907.75;2614384;36;20031;-61
2022/07/13 02:41:42;;;;;;;7.07;4.18;;;;;;;22.28;100.00;101915.22;2615206;36;20081;-62
2022/07/13 02:44:10;;;;;;;7.70;3.95;;;;;;;22.16;100.00;101911.25;2615500;31;20077;-59
2022/07/13 02:46:38;;;;;;;5.03;3.85;;;;;;;22.19;100.00;101916.34;2615497;36;20035;-57
2022/07/13 02:49:09;;;;;;;5.55;4.10;;;;;;;22.19;100.00;101928.16;2615507;31;20030;-56
2022/07/13 02:51:37;;;;;;;5.85;4.60;;;;;;;22.21;100.00;101914.25;2615396;36;20034;-61
2022/07/13 02:54:06;;;;;;;6.57;4.03;;;;;;;22.13;100.00;101909.72;2615853;36;20069;-58
2022/07/13 02:56:35;;;;;;;6.85;5.05;;;;;;;21.94;100.00;101911.09;2615365;36;20134;-58
2022/07/13 02:59:03;;;;;;;;;;;;;;;21.76;100.00;101899.63;2615825;36;20065;-60
2022/07/13 03:01:31;;;;;;;8.10;5.73;;;;;;;21.67;100.00;101890.63;2615091;36;19954;-57
2022/07/13 03:03:59;;;;;;;7.70;5.15;;;;;;;21.75;100.00;101896.03;2614815;36;20053;-58
2022/07/13 03:06:31;;;;;;;6.50;5.40;;;;;;;21.76;100.00;101902.34;2615596;36;20031;-58
2022/07/13 03:08:59;;;;;;;8.00;4.95;;;;;;;21.76;100.00;101902.34;2616768;31;20057;-60
2022/07/13 03:11:28;;;;;;;6.05;5.00;;;;;;;21.72;100.00;101887.34;2615937;36;20073;-57
2022/07/13 03:13:56;;;;;;;8.02;5.60;;;;;;;21.62;100.00;101884.84;2616452;36;20447;-54
2022/07/13 03:16:24;;;;;;;7.57;4.82;;;;;;;21.67;100.00;101886.00;2616108;36;20056;-55
2022/07/13 03:18:52;;;;;;;8.10;5.88;;;;;;;21.75;100.00;101870.53;2615669;36;20037;-57
2022/07/13 03:21:22;;;;;;;7.45;5.88;;;;;;;21.78;100.00;101876.47;2615772;36;20579;-56
2022/07/13 03:23:52;;;;;;;9.15;5.57;;;;;;;21.74;100.00;101877.88;2615614;36;20026;-52
2022/07/13 03:26:21;;;;;;;8.23;5.72;;;;;;;21.74;100.00;101877.03;2616097;36;20034;-58
2022/07/13 03:28:49;;;;;;;8.50;5.63;;;;;;;21.78;100.00;101873.75;2615960;36;20570;-62
2022/07/13 03:31:18;;;;;;;7.82;5.72;;;;;;;21.59;100.00;101882.50;2616302;36;20038;-61
2022/07/13 03:33:46;;;;;;;8.18;5.63;;;;;;;21.57;100.00;101874.44;2615841;36;20044;-59
2022/07/13 03:36:15;;;;;;;8.52;5.88;;;;;;;21.54;100.00;101872.09;2616578;36;20416;-58
2022/07/13 03:38:43;;;;;;;13.85;7.05;;;;;;;21.48;100.00;101870.03;2615352;36;20029;-58
2022/07/13 03:41:14;;;;;;;8.98;6.53;;;;;;;21.57;100.00;101871.72;2615742;31;20035;-58
2022/07/13 03:43:43;;;;;;;8.27;5.65;;;;;;;21.62;100.00;101872.00;2615843;36;20547;-58
2022/07/13 03:46:11;;;;;;;9.43;6.20;;;;;;;21.57;100.00;101868.97;2615952;36;20615;-60
2022/07/13 03:48:39;;;;;;;9.25;5.97;;;;;;;21.47;100.00;101868.34;2616003;31;20037;-55
2022/07/13 03:51:08;;;;;;;9.10;5.50;;;;;;;21.46;100.00;101872.09;2615904;31;20043;-55
2022/07/13 03:53:36;;;;;;;13.60;5.65;;;;;;;21.54;100.00;101863.88;2615747;36;20034;-58
2022/07/13 03:56:05;;;;;;;8.15;5.70;;;;;;;21.42;100.00;101865.28;2615505;36;20023;-57
2022/07/13 03:58:35;;;;;;;9.60;6.10;;;;;;;21.41;100.00;101860.88;2615866;36;20130;-57
2022/07/13 04:01:04;;;;;;;9.15;6.53;;;;;;;21.40;100.00;101870.94;2615959;31;20057;-57
2022/07/13 04:03:32;;;;;;;7.97;6.05;;;;;;;21.43;100.00;101859.63;2616884;31;20466;-54
2022/07/13 04:06:00;;;;;;;8.85;5.85;;;;;;;21.42;100.00;101860.69;2615920;36;20023;-52
2022/07/13 04:08:29;;;;;;;8.43;5.75;;;;;;;21.38;100.00;101855.72;2615790;36;20069;-54
2022/07/13 04:10:57;;;;;;;7.47;5.43;;;;;;;21.41;100.00;101858.13;2615652;36;20037;-57
2022/07/13 04:13:25;;;;;;;8.38;5.72;;;;;;;21.39;100.00;101860.19;2615801;36;20042;-57
2022/07/13 04:15:56;;;;;;;7.85;5.65;;;;;;;21.33;100.00;101848.94;2615717;36;20057;-56
2022/07/13 04:18:24;;;;;;;9.23;5.88;;;;;;;21.28;100.00;101843.16;2616193;36;20440;-57
2022/07/13 04:20:52;;;;;;;9.82;6.43;;;;;;;21.37;100.00;101843.94;2615686;36;20039;-51
2022/07/13 04:23:21;;;;;;;8.13;5.80;;;;;;;21.48;100.00;101848.13;2615801;36;20050;-57
2022/07/13 04:25:49;;;;;;;7.70;6.00;;;;;;;21.42;100.00;101837.91;2616062;36;20045;-57
2022/07/13 04:28:17;;;;;;;9.18;5.88;;;;;;;21.43;100.00;101834.13;2615556;31;20027;-61
2022/07/13 04:30:46;;;;;;;10.70;6.28;;;;;;;21.39;100.00;101844.59;2615919;36;20057;-51
2022/07/13 04:33:16;;;;;;;8.73;6.90;;;;;;;21.39;100.00;101843.75;2615879;36;20038;-56
2022/07/13 04:35:45;;;;;;;9.38;6.50;;;;;;;21.41;100.00;101855.38;2616396;36;20434;-60
2022/07/13 04:38:13;;;;;;;11.98;7.13;;;;;;;21.53;100.00;101845.72;2615439;36;20039;-57
2022/07/13 04:40:41;;;;;;;11.40;6.50;;;;;;;21.53;100.00;101851.19;2615752;36;20062;-57
2022/07/13 04:43:10;;;;;;;11.40;7.03;;;;;;;21.63;100.00;101845.47;2615742;36;20038;-58
2022/07/13 04:45:38;;;;;;;10.10;7.38;;;;;;;21.49;100.00;101855.31;2615561;36;20045;-57
2022/07/13 04:48:07;;;;;;;12.68;7.15;;;;;;;21.38;100.00;101850.25;2615645;36;20037;-57
2022/07/13 04:50:38;;;;;;;9.77;7.47;;;;;;;21.44;100.00;101844.06;2615016;36;20039;-55
2022/07/13 04:53:06;;;;;;;11.20;7.85;;;;;;;21.52;100.00;101844.00;2615378;36;20439;-57
2022/07/13 04:55:35;;;;;;;10.25;7.63;;;;;;;21.59;100.00;101844.97;2615493;31;20046;-58
2022/07/13 04:58:03;;;;;;;8.88;7.32;;;;;;;21.61;100.00;101842.91;2615754;36;20081;-55
2022/07/13 05:00:31;;;;;;;9.65;7.45;;;;;;;21.58;100.00;101840.53;2612459;36;20034;-57
2022/07/13 05:03:00;;;;;;;12.43;8.18;;;;;;;21.59;100.00;101838.66;2611902;36;20034;-56
2022/07/13 05:05:34;;;;;;;11.85;8.88;;;;;;;21.61;100.00;101842.91;2612989;54;20038;-55
2022/07/13 05:08:05;;;;;;;13.55;8.80;;;;;;;21.57;100.00;101835.22;2611317;31;20560;-61
2022/07/13 05:10:34;;;;;;;14.07;8.63;;;;;;;21.62;100.00;101839.13;2610597;31;20046;-58
2022/07/13 05:13:02;;;;;;;10.60;7.80;;;;;;;21.60;100.00;101830.25;2611343;36;20070;-61
2022/07/13 05:15:30;;;;;;;14.02;8.95;;;;;;;21.71;100.00;101828.94;2610715;36;20069;-57
2022/07/13 05:17:58;;;;;;;13.52;9.30;;;;;;;21.70;100.00;101829.97;2610032;36;20038;-57
2022/07/13 05:20:27;;;;;;;15.60;9.38;;;;;;;21.75;100.00;101821.22;2610357;36;20065;-55
2022/07/13 05:22:55;;;;;;;11.00;8.43;;;;;;;21.65;100.00;101826.94;2609922;36;20105;-58
2022/07/13 05:25:26;;;;;;;16.85;10.88;;;;;;;21.65;100.00;101822.31;2609718;36;20059;-57
2022/07/13 05:27:54;;;;;;;12.95;10.05;;;;;;;21.67;100.00;101820.25;2609582;31;20034;-58
2022/07/13 05:30:22;;;;;;;13.15;9.73;;;;;;;21.77;100.00;101828.19;2610044;31;20035;-57
2022/07/13 05:32:51;;;;;;;13.55;9.10;;;;;;;21.77;100.00;101830.09;2609304;36;20046;-56
2022/07/13 05:35:19;;;;;;;12.73;9.88;;;;;;;21.66;100.00;101829.50;2609384;36;20085;-58
2022/07/13 05:37:47;;;;;;;13.38;9.40;;;;;;;21.88;100.00;101824.16;2608372;36;20038;-61
2022/07/13 05:40:16;;;;;;;13.63;9.35;;;;;;;21.81;100.00;101834.16;2608090;36;20054;-53
2022/07/13 05:42:47;;;;;;;17.58;9.18;;;;;;;21.77;100.00;101847.38;2609330;36;20045;-60
2022/07/13 05:45:15;;;;;;;14.70;9.60;;;;;;;21.89;100.00;101845.03;2608331;36;20061;-59
2022/07/13 05:47:46;;;;;;;15.98;9.70;;;;;;;21.81;100.00;101848.69;2608329;36;20046;-61
2022/07/13 05:50:15;;;;;;;13.43;9.82;;;;;;;21.87;100.00;101842.47;2609844;36;20034;-58
2022/07/13 05:52:44;;;;;;;17.75;9.68;;;;;;;21.73;100.00;101840.56;2609861;36;20030;-58
2022/07/13 05:55:13;;;;;;;17.02;10.48;;;;;;;21.87;100.00;101830.66;2610542;36;20421;-56
2022/07/13 05:57:42;;;;;;;15.93;10.40;;;;;;;;;;2609751;36;20031;-56
2022/07/13 06:00:14;;;;;;;12.90;9.50;;;;;;;21.90;100.00;101846.72;2610553;36;20031;-56
2022/07/13 06:02:44;;;;;;;14.55;10.38;;;;;;;22.05;100.00;101850.34;2610006;36;20069;-55
2022/07/13 06:05:13;;;;;;;13.57;9.90;;;;;;;22.14;100.00;101848.38;2609842;36;20507;-57
2022/07/13 06:07:41;;;;;;;14.88;9.75;;;;;;;22.48;100.00;101837.88;2610999;36;20039;-58
2022/07/13 06:10:11;;;;;;;15.65;9.93;;;;;;;22.47;100.00;101847.16;2611065;31;20042;-59
2022/07/13 06:12:39;;;;;;;13.77;10.55;;;;;;;22.58;100.00;101846.66;2610330;36;20448;-57
2022/07/13 06:15:08;;;;;;;14.20;10.32;;;;;;;22.54;100.00;101843.44;2609720;36;20045;-58
2022/07/13 06:17:39;;;;;;;13.60;9.57;;;;;;;22.57;100.00;101842.22;2609435;36;20048;-57
2022/07/13 06:20:09;;;;;;;14.40;9.43;;;;;;;22.70;100.00;101838.75;2609452;36;20030;-57
2022/07/13 06:22:38;;;;;;;12.32;9.27;;;;;;;22.83;100.00;101832.59;2609663;36;20154;-57
2022/07/13 06:25:07;;;;;;;13.13;9.27;;;;;;;22.79;100.00;101840.38;2609359;36;20038;-59
2022/07/13 06:27:35;;;;;;;13.48;9.65;;;;;;;22.97;100.00;101848.16;2609515;36;20784;-57
2022/07/13 06:30:03;;;;;;;13.40;9.02;;;;;;;23.44;100.00;101838.53;2609464;36;20041;-58
2022/07/13 06:32:32;;;;;;;13.23;8.93;;;;;;;23.22;100.00;101840.44;2611188;31;20520;-54
2022/07/13 06:35:02;;;;;;;14.13;8.85;;;;;;;23.29;100.00;101845.97;2610835;36;20073;-57
2022/07/13 06:37:31;;;;;;;11.65;8.82;;;;;;;23.44;100.00;101849.50;2609611;36;20042;-55
2022/07/13 06:39:59;;;;;;;13.77;8.57;;;;;;;23.37;100.00;101839.50;2609497;36;20086;-57
2022/07/13 06:42:27;;;;;;;11.57;8.07;;;;;;;23.38;100.00;101841.19;2610006;31;20062;-56
2022/07/13 06:44:55;;;;;;;11.77;7.78;;;;;;;23.33;100.00;101844.53;2610228;36;20572;-58
2022/07/13 06:47:24;;;;;;;10.82;7.80;;;;;;;23.49;100.00;101845.31;2614725;36;20034;-60
2022/07/13 06:49:52;;;;;;;12.88;7.93;;;;;;;23.61;100.00;101838.22;2615195;36;20041;-54
2022/07/13 06:52:23;;;;;;;10.00;7.07;;;;;;;23.56;100.00;101838.00;2613297;36;20143;-54
2022/07/13 06:54:51;;;;;;;12.65;7.47;;;;;;;23.61;100.00;101829.97;2613910;36;20034;-58
2022/07/13 06:57:20;;;;;;;10.20;7.10;;;;;;;23.61;100.00;101827.22;2613849;31;20536;-58
2022/07/13 06:59:48;;;;;;;10.25;6.53;;;;;;;23.72;100.00;101829.44;2613600;36;20038;-61
2022/07/13 07:02:17;;;;;;;8.45;5.82;;;;;;;24.00;100.00;101825.00;2613862;36;20553;-60
2022/07/13 07:04:45;;;;;;;9.35;6.07;;;;;;;24.31;100.00;101835.56;2615131;36;20069;-58
2022/07/13 07:07:13;;;;;;;8.60;5.88;;;;;;;24.41;100.00;101832.41;2615960;36;20035;-58
2022/07/13 07:09:44;;;;;;;7.68;5.35;;;;;;;24.48;100.00;101831.41;2615667;31;20030;-58
2022/07/13 07:12:12;;;;;;;9.18;6.10;;;;;;;24.63;100.00;101838.66;2617139;36;20435;-58
2022/07/13 07:14:41;;;;;;;7.60;5.72;;;;;;;24.33;100.00;101830.69;2616669;36;20038;-61
2022/07/13 07:17:09;;;;;;;10.98;5.63;;;;;;;24.58;100.00;101843.94;2617393;36;20031;-60
2022/07/13 07:19:38;;;;;;;10.15;5.80;;;;;;;24.73;100.00;101836.38;2613062;36;20554;-61
2022/07/13 07:22:06;;;;;;;8.80;5.57;;;;;;;24.66;100.00;101841.00;2615388;36;20451;-55
2022/07/13 07:24:34;;;;;;;8.85;5.63;;;;;;;24.70;100.00;101842.31;2613825;36;20038;-57
2022/07/13 07:27:07;;;;;;;9.00;5.60;;;;;;;24.70;100.00;101842.31;2613805;31;20585;-58
2022/07/13 07:29:36;;;;;;;8.70;5.40;;;;;;;24.89;100.00;101835.16;2605872;36;20500;-61
2022/07/13 07:32:05;;;;;;;8.07;5.25;;;;;;;25.17;100.00;101837.75;2615105;36;20053;-59
2022/07/13 07:34:33;;;;;;;8.77;4.90;;;;;;;25.81;100.00;101832.72;2615525;36;20147;-58
2022/07/13 07:37:02;;;;;;;11.48;5.32;;;;;;;26.02;100.00;101831.63;2615796;31;20449;-59
2022/07/13 07:39:30;;;;;;;6.00;4.57;;;;;;;26.23;100.00;101835.19;2615045;36;20392;-59
2022/07/13 07:41:58;;;;;;;6.65;4.75;;;;;;;26.55;100.00;101827.00;2615368;36;20034;-59
2022/07/13 07:44:32;;;;;;;8.55;5.15;;;;;;;26.51;100.00;101825.75;2615459;36;20057;-55
2022/07/13 07:47:01;;;;;;;5.93;4.75;;;;;;;26.56;100.00;101829.56;2615518;31;20038;-59
2022/07/13 07:49:29;;;;;;;6.82;5.18;;;;;;;26.21;100.00;101823.53;2614751;36;20034;-58
2022/07/13 07:51:58;;;;;;;6.70;4.32;;;;;;;26.70;100.00;101830.34;2613866;36;20069;-58
2022/07/13 07:54:27;;;;;;;5.90;4.95;;;;;;;26.62;100.00;101832.47;2613662;36;20034;-60
2022/07/13 07:56:55;;;;;;;6.30;4.20;;;;;;;26.74;100.00;101828.00;2614446;36;20030;-58
2022/07/13 07:59:24;;;;;;;6.40;4.72;;;;;;;26.77;100.00;101827.56;2614857;36;20034;-58
2022/07/13 08:01:55;;;;;;;;;;;;;;;26.86;100.00;101822.63;2613910;36;20034;-57
2022/07/13 08:04:23;;;;;;;9.63;4.45;;;;;;;27.26;100.00;101822.34;2614467;36;19965;-57
2022/07/13 08:06:51;;;;;;;7.38;4.30;;;;;;;26.70;100.00;101826.75;2614409;36;20037;-59
2022/07/13 08:09:20;;;;;;;6.72;4.82;;;;;;;26.36;100.00;101823.28;2614641;36;20567;-58
2022/07/13 08:11:48;;;;;;;6.60;5.07;;;;;;;26.80;100.00;101824.38;2613960;36;20038;-58
2022/07/13 08:14:16;;;;;;;7.75;4.38;;;;;;;26.82;100.00;101827.75;2614727;36;20027;-59
2022/07/13 08:16:45;;;;;;;6.13;4.53;;;;;;;27.00;100.00;101828.91;2615235;36;20464;-58
2022/07/13 08:19:16;;;;;;;5.82;5.00;;;;;;;26.90;100.00;101829.41;2614759;36;20058;-59
2022/07/13 08:21:44;;;;;;;6.53;4.53;;;;;;;26.98;100.00;101826.38;2614597;31;20037;-58
2022/07/13 08:24:12;;;;;;;8.45;4.60;;;;;;;27.24;100.00;101824.50;2614791;36;20818;-63
2022/07/13 08:26:41;;;;;;;6.68;5.25;;;;;;;27.35;100.00;101823.78;2614417;36;20022;-59
2022/07/13 08:29:09;;;;;;;6.60;4.50;;;;;;;27.66;100.00;101816.50;2607896;31;20042;-62
2022/07/13 08:31:37;;;;;;;5.90;4.88;;;;;;;28.02;100.00;101820.44;2613839;36;20313;-60
2022/07/13 08:39:30;;;;;;;9.00;4.63;;;;;;;27.42;100.00;101832.03;2614463;36;20069;-59
2022/07/13 08:42:00;;;;;;;9.23;5.63;;;;;;;27.10;100.00;101823.75;2615023;31;20476;-59
2022/07/13 08:44:28;;;;;;;6.85;4.60;;;;;;;27.08;100.00;101832.25;2613605;36;20034;-58
2022/07/13 08:46:57;;;;;;;6.32;4.70;;;;;;;27.41;100.00;101819.28;2614938;36;20065;-59
2022/07/13 08:49:26;;;;;;;9.05;4.70;;;;;;;27.64;100.00;101817.81;2614382;36;20034;-61
2022/07/13 08:51:59;;;;;;;5.30;3.60;;;;;;;27.81;100.00;101821.69;2613805;36;20494;-58
2022/07/13 08:54:29;;;;;;;7.03;3.72;;;;;;;27.68;100.00;101824.56;2614935;36;20583;-59
2022/07/13 08:56:58;;;;;;;6.57;3.55;;;;;;;27.89;100.00;101831.63;2617216;36;20031;-61
2022/07/13 08:59:26;;;;;;;8.52;3.55;;;;;;;28.04;100.00;101814.69;2615167;36;20042;-61
2022/07/13 09:01:54;;;;;;;4.22;3.15;;;;;;;28.01;100.00;101817.91;2615630;36;20552;-58
2022/07/13 09:04:23;;;;;;;3.28;2.75;;;;;;;28.14;100.00;101823.28;2614319;36;20042;-58
2022/07/13 09:06:52;;;;;;;6.10;3.50;;;;;;;27.76;100.00;101821.53;2614813;36;20034;-58
2022/07/13 09:09:43;;;;;;;5.20;3.22;;;;;;;27.24;100.00;101825.34;2615578;36;20586;-58
2022/07/13 09:12:18;;;;;;;3.92;3.10;;;;;;;27.34;100.00;101830.41;2614803;36;20089;-57
2022/07/13 09:14:54;;;;;;;5.57;2.70;;;;;;;27.47;100.00;101818.38;2614143;36;20030;-63
2022/07/13 09:17:32;;;;;;;2.67;2.22;;;;;;;27.82;100.00;101826.16;2614693;36;20038;-57
2022/07/13 09:20:04;;;;;;;4.35;2.28;;;;;;;28.42;100.00;101816.34;2615079;36;20150;-57
2022/07/13 09:22:32;;;;;;;3.92;2.72;;;;;;;28.79;100.00;101827.41;2614168;36;20153;-57
2022/07/13 09:25:03;;;;;;;4.68;2.72;;;;;;;28.93;100.00;101831.66;2615122;36;20029;-58
2022/07/13 09:27:48;;;;;;;4.40;3.03;;;;;;;28.62;100.00;101830.81;2615214;36;20031;-58
2022/07/13 09:30:27;;;;;;;5.85;2.83;;;;;;;28.46;100.00;101828.63;2614240;36;20037;-57
2022/07/13 09:32:57;;;;;;;4.35;2.70;;;;;;;28.87;100.00;101832.59;2613994;36;20137;-59
2022/07/13 09:35:44;;;;;;;5.63;2.50;;;;;;;28.64;100.00;101828.66;2608342;36;20093;-57
2022/07/13 09:38:28;;;;;;;6.07;2.80;;;;;;;28.81;100.00;101833.53;2614077;36;20034;-59
2022/07/13 09:41:17;;;;;;;3.75;2.47;;;;;;;29.04;100.00;101831.94;2614153;36;20035;-58
2022/07/13 09:46:51;;;;;;;6.10;2.20;;;;;;;28.42;100.00;101835.75;2614980;36;20034;-59
2022/07/13 09:49:20;;;;;;;4.15;2.05;;;;;;;28.96;97.89;101852.50;2615398;36;20042;-58
2022/07/13 09:51:48;;;;;;;3.78;1.90;;;;;;;28.94;95.49;101849.13;2615103;36;20030;-61
2022/07/13 09:54:17;;;;;;;2.58;1.90;;;;;;;28.91;93.39;101846.84;2615093;36;20085;-58
2022/07/13 09:56:54;;;;;;;;;;;;;;;29.56;87.82;101840.50;2615710;54;20055;-57
2022/07/13 09:59:23;;;;;;;2.88;1.77;;;;;;;29.32;85.74;101848.78;2614212;36;19961;-58
2022/07/13 10:01:52;;;;;;;2.83;1.80;;;;;;;29.27;93.13;101845.91;2614976;36;20061;-58
2022/07/13 10:04:21;;;;;;;3.30;1.83;;;;;;;29.36;83.85;101846.41;2613385;36;20038;-54
2022/07/13 10:06:49;;;;;;;3.00;1.90;;;;;;;29.07;82.63;101846.16;2614614;36;20056;-58
2022/07/13 10:09:20;;;;;;;2.92;1.90;;;;;;;29.12;86.27;101845.44;2614890;36;20038;-61
2022/07/13 10:11:48;;;;;;;7.13;1.67;;;;;;;29.13;81.91;101842.44;2615308;31;20110;-58
2022/07/13 10:14:20;;;;;;;4.25;1.88;;;;;;;29.50;80.21;101847.00;2614895;36;20042;-59
2022/07/13 10:16:49;;;;;;;3.33;1.70;;;;;;;29.41;79.01;101840.97;2615481;36;20057;-56
2022/07/13 10:19:18;;;;;;;2.13;1.60;;;;;;;29.92;83.08;101846.06;2614905;36;20044;-57
2022/07/13 10:22:04;;;;;;;4.25;1.70;;;;;;;29.91;75.69;101839.69;2615396;36;20046;-60
2022/07/13 10:24:32;;;;;;;3.20;1.80;;;;;;;29.76;71.39;101844.88;2613097;36;20042;-58
2022/07/13 10:27:26;;;;;;;3.47;1.80;;;;;;;29.94;73.09;101841.97;2615398;36;20057;-57
2022/07/13 10:29:58;;;;;;;2.90;1.40;;;;;;;29.75;76.88;101848.72;2614485;36;20037;-57
2022/07/13 10:32:28;;;;;;;5.22;1.52;;;;;;;29.51;74.44;101841.22;2610980;36;20038;-58
2022/07/13 10:35:00;;;;;;;7.55;2.03;;;;;;;29.67;75.42;101848.00;2613256;36;20082;-58
2022/07/13 10:37:28;;;;;;;3.60;1.80;;;;;;;30.08;78.76;101850.91;2608825;31;20037;-58
2022/07/13 10:40:12;;;;;;;;;;;;;;;30.28;73.19;101842.16;2613093;36;20039;-59
2022/07/13 10:43:10;;;;;;;1.83;1.48;;;;;;;30.39;73.62;101857.97;2612598;31;19947;-58
2022/07/13 10:45:43;;;;;;;2.55;1.67;;;;;;;29.78;71.19;101854.63;2614203;36;20065;-61
2022/07/13 10:48:48;;;;;;;4.15;1.65;;;;;;;29.66;72.42;101876.81;2614757;36;20045;-57
2022/07/13 10:51:24;;;;;;;3.08;1.73;;;;;;;29.27;77.18;101872.75;2614742;36;20566;-58
2022/07/13 10:54:09;;;;;;;4.95;1.77;;;;;;;29.35;71.95;101877.97;2614712;31;20053;-59
2022/07/13 10:56:37;;;;;;;2.47;1.75;;;;;;;29.46;71.53;101873.53;2614979;31;20041;-60
2022/07/13 10:59:08;;;;;;;2.47;1.70;;;;;;;29.61;70.80;101873.06;2614760;31;20051;-58
2022/07/13 11:01:48;;;;;;;2.75;2.00;;;;;;;29.77;71.88;101877.94;2614939;36;20045;-57
2022/07/13 11:04:18;;;;;;;4.22;1.90;;;;;;;30.11;65.41;101891.22;2613276;36;20160;-59
2022/07/13 11:07:07;;;;;;;2.90;1.80;;;;;;;29.66;72.22;101896.22;2613823;31;20448;-58
2022/07/13 11:09:36;;;;;;;2.90;1.70;;;;;;;30.19;66.29;101893.63;2614353;31;20027;-60
2022/07/13 11:12:04;;;;;;;;;;;;;;;30.65;68.63;101891.03;2615087;36;20081;-57
2022/07/13 11:14:48;;;;;;;2.90;1.90;;;;;;;31.27;67.51;101884.75;2613746;36;20670;-58
2022/07/13 11:17:21;;;;;;;3.90;1.98;;;;;;;31.13;66.07;101888.94;2614109;36;20048;-58
2022/07/13 11:19:58;;;;;;;7.05;1.80;;;;;;;31.16;59.60;101889.28;2614111;36;20030;-56
2022/07/13 11:25:13;;;;;;;2.92;1.67;;;;;;;31.11;62.93;101883.63;2613624;36;20035;-59
2022/07/13 11:25:33;;;;;;;4.05;1.75;;;;;;;31.45;62.03;101894.81;2614059;36;20579;-59
2022/07/13 11:28:07;;;;;;;5.40;1.83;;;;;;;30.99;63.97;101892.00;2614475;36;20030;-58
2022/07/13 11:30:42;;;;;;;2.47;1.90;;;;;;;30.53;62.95;101900.22;2615003;36;20038;-58
2022/07/13 11:33:13;;;;;;;2.70;1.73;;;;;;;31.26;60.60;101892.25;2615582;36;21011;-58
2022/07/13 11:35:47;;;;;;;3.30;2.20;;;;;;;30.59;64.95;101895.63;2615772;36;20166;-58
2022/07/13 11:38:17;;;;;;;2.45;1.90;;;;;;;30.53;62.44;101904.94;2615222;36;20034;-58
2022/07/13 11:40:46;;;;;;;2.78;1.80;;;;;;;29.94;62.21;101903.03;2608609;36;20069;-60